Time;durP1;ratioP1;P1;durP2;ratioP2;P2;SDS_P1;SDS_P2;PMS_P1;PMS_P2;Temp;Humidity;BMP_temperature;BMP_pressure;BME280_temperature;BME280_humidity;BME280_pressure;Samples;Min_cycle;Max_cycle;Signal;HPM_P1;HPM_P2
2023/07/22 00:01:36;;;;;;;;;18.00;17.00;;;;;17.72;100.00;99138.19;6280214;20;2831582;-45
2023/07/22 00:04:05;;;;;;;;;14.50;14.50;;;;;17.65;100.00;99132.53;6281698;20;2808848;-46
2023/07/22 00:06:33;;;;;;;;;15.00;12.00;;;;;17.66;100.00;99142.38;6281599;20;2813969;-52
2023/07/22 00:09:00;;;;;;;;;20.00;14.00;;;;;17.66;100.00;99142.38;6277234;20;2487929;-52
2023/07/22 00:11:28;;;;;;;;;14.00;14.00;;;;;17.66;100.00;99152.38;6282680;20;2808748;-50
2023/07/22 00:13:55;;;;;;;;;12.50;12.50;;;;;17.45;100.00;99149.94;6284431;20;2500291;-47
2023/07/22 00:16:24;;;;;;;;;18.50;15.50;;;;;17.29;100.00;99135.16;6282749;20;2831610;-47
2023/07/22 00:18:51;;;;;;;;;17.00;15.00;;;;;17.39;100.00;99123.41;6278982;20;2487773;-45
2023/07/22 00:21:19;;;;;;;;;15.00;15.00;;;;;17.30;100.00;99123.31;6282264;20;2492045;-47
2023/07/22 00:23:47;;;;;;;;;18.50;17.50;;;;;17.52;100.00;99121.19;6283362;20;2835704;-44
2023/07/22 00:26:14;;;;;;;;;17.00;14.50;;;;;17.41;100.00;99126.84;6281296;20;2500346;-46
2023/07/22 00:28:43;;;;;;;;;16.33;16.33;;;;;17.48;100.00;99128.78;6283227;20;3553429;-49
2023/07/22 00:31:10;;;;;;;;;17.00;16.00;;;;;17.44;100.00;99130.09;6311825;20;2489890;-45
2023/07/22 00:33:38;;;;;;;;;13.33;12.67;;;;;17.47;100.00;99124.34;6281511;20;3521141;-45
2023/07/22 00:36:07;;;;;;;;;15.33;14.00;;;;;17.57;100.00;99137.88;6313749;20;3544060;-46
2023/07/22 00:38:35;;;;;;;;;13.00;13.00;;;;;17.44;100.00;99148.22;6280839;20;3527567;-45
2023/07/22 00:41:04;;;;;;;;;16.00;13.00;;;;;17.43;100.00;99149.22;6285114;20;2795167;-46
2023/07/22 00:43:32;;;;;;;;;15.00;13.00;;;;;17.30;100.00;99147.72;6283340;20;2799424;-46
2023/07/22 00:46:01;;;;;;;;;14.33;14.33;;;;;17.29;100.00;99151.44;6307500;20;3544506;-45
2023/07/22 00:48:29;;;;;;;;;14.00;14.00;;;;;17.40;100.00;99146.81;6276428;20;3524402;-45
2023/07/22 00:50:57;;;;;;;;;15.50;14.50;;;;;17.36;100.00;99148.13;6278559;20;2500285;-46
2023/07/22 00:53:26;;;;;;;;;13.50;12.50;;;;;17.09;100.00;99153.41;6280887;20;2783867;-45
2023/07/22 00:55:54;;;;;;;;;14.00;13.00;;;;;17.19;100.00;99160.63;6310768;20;2492029;-47
2023/07/22 00:58:22;;;;;;;;;16.33;13.33;;;;;17.29;100.00;99162.28;6280635;20;3532630;-44
2023/07/22 01:00:52;;;;;;;;;14.00;14.00;;;;;17.15;100.00;99165.50;6284929;20;3531543;-45
2023/07/22 01:03:20;;;;;;;;;18.50;16.00;;;;;17.24;100.00;99164.59;6312109;20;2829487;-47
2023/07/22 01:05:51;;;;;;;;;14.33;13.00;;;;;17.25;100.00;99182.59;6278928;20;3548358;-45
2023/07/22 01:08:20;;;;;;;;;17.67;17.67;;;;;17.15;100.00;99183.66;6277737;20;2491974;-47
2023/07/22 01:10:48;;;;;;;;;17.33;16.67;;;;;17.11;100.00;99180.34;6312024;20;3562917;-52
2023/07/22 01:13:17;;;;;;;;;18.00;17.00;;;;;17.14;100.00;99177.38;6279716;20;2833876;-48
2023/07/22 01:15:45;;;;;;;;;16.67;15.00;;;;;17.16;100.00;99171.78;6280024;20;3548213;-46
2023/07/22 01:18:14;;;;;;;;;17.00;17.00;;;;;17.08;100.00;99167.94;6275907;20;3443101;-48
2023/07/22 01:20:42;;;;;;;;;19.00;17.00;;;;;17.18;100.00;99170.63;6307724;20;2485793;-48
2023/07/22 01:23:10;;;;;;;;;13.50;13.50;;;;;17.15;100.00;99170.94;6282480;20;2500288;-47
2023/07/22 01:25:38;;;;;;;;;18.00;16.00;;;;;17.15;100.00;99170.09;6285323;20;2483571;-48
2023/07/22 01:28:10;;;;;;;;;17.67;17.33;;;;;17.34;100.00;99178.13;6281398;20;2496207;-46
2023/07/22 01:30:39;;;;;;;;;18.00;16.00;;;;;17.12;100.00;99182.09;6316717;20;3571075;-46
2023/07/22 01:33:08;;;;;;;;;18.00;17.00;;;;;17.15;100.00;99192.63;6284316;20;2835693;-46
2023/07/22 01:35:36;;;;;;;;;18.00;18.00;;;;;17.25;100.00;99196.16;6282918;20;2824267;-45
2023/07/22 01:38:04;;;;;;;;;16.50;15.50;;;;;17.10;100.00;99197.66;6284113;20;2824251;-45
2023/07/22 01:40:33;;;;;;;;;17.50;16.50;;;;;17.19;100.00;99191.31;6283696;20;2826422;-45
2023/07/22 01:43:00;;;;;;;;;18.00;18.00;;;;;17.36;100.00;99197.00;6283846;20;2484395;-45
2023/07/22 01:45:28;;;;;;;;;20.00;18.00;;;;;17.33;100.00;99198.13;6284661;20;2714925;-44
2023/07/22 01:47:56;;;;;;;;;18.50;17.50;;;;;17.08;100.00;99203.22;6313811;20;2841992;-46
2023/07/22 01:50:24;;;;;;;;;20.00;19.00;;;;;17.27;100.00;99202.31;6283285;20;3581638;-48
2023/07/22 01:52:53;;;;;;;;;19.00;16.00;;;;;17.26;100.00;99194.31;6285373;20;2832563;-45
2023/07/22 01:55:21;;;;;;;;;14.50;14.50;;;;;17.38;100.00;99206.69;6285108;20;2812831;-45
2023/07/22 01:57:49;;;;;;;;;17.50;15.50;;;;;17.25;100.00;99215.16;6284504;20;2821115;-46
2023/07/22 02:00:17;;;;;;;;;17.33;12.33;;;;;17.17;100.00;99223.19;6280326;20;3525563;-46
2023/07/22 02:02:46;;;;;;;;;16.00;16.00;;;;;17.25;100.00;99225.16;6281918;20;3566960;-44
2023/07/22 02:05:15;;;;;;;;;17.00;16.00;;;;;17.00;100.00;99230.22;6282112;20;2822170;-50
2023/07/22 02:07:43;;;;;;;;;23.00;18.00;;;;;17.05;100.00;99230.63;6285046;20;2852944;-46
2023/07/22 02:10:10;;;;;;;;;17.00;17.00;;;;;17.17;100.00;99235.88;6280443;20;2491979;-44
2023/07/22 02:12:38;;;;;;;;;14.00;13.00;;;;;17.18;100.00;99238.47;6286736;20;2487767;-46
2023/07/22 02:15:06;;;;;;;;;15.00;15.00;;;;;17.16;100.00;99242.31;6287814;20;2806584;-45
2023/07/22 02:17:33;;;;;;;;;18.00;15.00;;;;;17.08;100.00;99234.91;6281700;20;2487848;-47
2023/07/22 02:20:04;;;;;;;;;16.00;15.00;;;;;17.12;100.00;99241.78;6282558;20;3552589;-47
2023/07/22 02:22:32;;;;;;;;;14.67;14.67;;;;;16.99;100.00;99236.66;6286834;20;2801343;-44
2023/07/22 02:25:00;;;;;;;;;16.50;15.50;;;;;16.94;100.00;99254.38;6316247;20;2820103;-44
2023/07/22 02:27:28;;;;;;;;;19.50;16.50;;;;;16.99;100.00;99254.78;6282955;20;2839918;-50
2023/07/22 02:29:57;;;;;;;;;19.00;17.00;;;;;17.04;100.00;99274.19;6282280;20;3562795;-45
2023/07/22 02:32:26;;;;;;;;;18.00;17.00;;;;;16.97;100.00;99273.06;6314947;20;2831539;-49
2023/07/22 02:34:54;;;;;;;;;20.67;19.00;;;;;16.91;100.00;99270.94;6318264;20;3575273;-45
2023/07/22 02:37:22;;;;;;;;;17.00;16.00;;;;;17.08;100.00;99272.88;6281405;20;2823219;-46
2023/07/22 02:39:49;;;;;;;;;15.50;15.50;;;;;17.04;100.00;99266.06;6280988;20;2491944;-45
2023/07/22 02:42:17;;;;;;;;;15.00;14.50;;;;;17.12;100.00;99279.75;6282991;20;2805580;-46
2023/07/22 02:44:45;;;;;;;;;14.50;14.00;;;;;17.06;100.00;99274.88;6281279;20;2491938;-46
2023/07/22 02:47:14;;;;;;;;;14.67;14.67;;;;;17.00;100.00;99267.34;6283137;20;3544027;-46
2023/07/22 02:49:42;;;;;;;;;15.00;15.00;;;;;16.94;100.00;99276.91;6277295;20;2806582;-46
2023/07/22 02:52:10;;;;;;;;;18.00;18.00;;;;;16.97;100.00;99273.91;6284752;20;2832590;-47
2023/07/22 02:54:41;;;;;;;;;15.00;14.00;;;;;17.14;100.00;99272.31;6282265;20;2498178;-45
2023/07/22 02:57:09;;;;;;;;;16.50;16.50;;;;;17.09;100.00;99275.47;6281762;20;2835673;-46
2023/07/22 02:59:37;;;;;;;;;17.00;16.50;;;;;16.96;100.00;99284.94;6282433;20;2831566;-46
2023/07/22 03:02:05;;;;;;;;;21.50;19.00;;;;;16.90;100.00;99289.03;6282654;20;2831938;-45
2023/07/22 03:04:33;;;;;;;;;19.00;18.00;;;;;16.91;100.00;99289.94;6283452;20;2837864;-52
2023/07/22 03:07:04;;;;;;;;;22.00;20.00;;;;;16.91;100.00;99292.63;6283470;20;2842995;-47
2023/07/22 03:09:32;;;;;;;;;19.00;19.00;;;;;16.98;100.00;99296.47;6282786;20;2834657;-45
2023/07/22 03:12:00;;;;;;;;;19.50;17.00;;;;;17.08;100.00;99306.28;6283964;20;2832572;-45
2023/07/22 03:14:28;;;;;;;;;21.50;20.00;;;;;16.95;100.00;99307.59;6280846;20;2827469;-48
2023/07/22 03:16:56;;;;;;;;;25.00;23.00;;;;;16.99;100.00;99304.47;6280264;20;2845176;-47
2023/07/22 03:19:25;;;;;;;;;20.67;18.33;;;;;17.12;100.00;99312.31;6284719;20;3573273;-46
2023/07/22 03:21:53;;;;;;;;;18.00;17.00;;;;;17.04;100.00;99315.75;6278475;20;2838804;-46
2023/07/22 03:24:21;;;;;;;;;18.50;18.00;;;;;17.16;100.00;99324.56;6281971;20;2834665;-44
2023/07/22 03:26:49;;;;;;;;;20.67;19.67;;;;;17.04;100.00;99315.75;6283485;20;3553547;-46
2023/07/22 03:29:17;;;;;;;;;21.67;20.67;;;;;17.20;100.00;99317.84;6313511;20;3577408;-44
2023/07/22 03:31:46;;;;;;;;;19.33;18.00;;;;;17.17;100.00;99319.97;6278947;20;2835900;-45
2023/07/22 03:34:14;;;;;;;;;19.67;17.33;;;;;17.21;100.00;99318.69;6315535;20;3567054;-48
2023/07/22 03:36:43;;;;;;;;;24.33;22.33;;;;;17.32;100.00;99323.94;6278395;20;2850462;-48
2023/07/22 03:39:12;;;;;;;;;23.00;21.00;;;;;17.27;100.00;99331.66;6315837;20;3576431;-45
2023/07/22 03:41:40;;;;;;;;;21.00;18.67;;;;;17.28;100.00;99328.81;6280734;20;3575300;-47
2023/07/22 03:44:08;;;;;;;;;21.00;21.00;;;;;17.29;100.00;99325.09;6282928;20;3567995;-47
2023/07/22 03:46:36;;;;;;;;;23.00;20.33;;;;;17.42;100.00;99313.94;6282424;20;3576290;-46
2023/07/22 03:49:05;;;;;;;;;21.00;21.00;;;;;17.28;100.00;99309.84;6281622;20;3589841;-44
2023/07/22 03:51:33;;;;;;;;;27.00;25.67;;;;;17.44;100.00;99308.38;6282755;20;3595031;-44
2023/07/22 03:54:02;;;;;;;;;24.33;22.67;;;;;17.28;100.00;99317.97;6280363;20;2850480;-47
2023/07/22 03:56:30;;;;;;;;;22.67;22.00;;;;;17.37;100.00;99320.81;6314351;20;3584009;-45
2023/07/22 03:58:59;;;;;;;;;23.33;21.67;;;;;17.46;100.00;99326.22;6282591;20;2845177;-47
2023/07/22 04:01:28;;;;;;;;;23.67;21.67;;;;;17.46;100.00;99325.38;6313106;20;3585901;-45
2023/07/22 04:03:56;;;;;;;;;22.00;21.33;;;;;17.61;100.00;99326.56;6285648;20;3580462;-45
2023/07/22 04:06:24;;;;;;;;;25.00;22.00;;;;;17.75;100.00;99327.97;6285543;20;3586718;-45
2023/07/22 04:08:53;;;;;;;;;22.50;21.00;;;;;17.47;100.00;99332.50;6279941;20;2841930;-48
2023/07/22 04:11:21;;;;;;;;;22.67;21.00;;;;;17.57;100.00;99333.31;6281804;20;3573208;-45
2023/07/22 04:13:49;;;;;;;;;23.67;22.33;;;;;17.58;100.00;99334.19;6282156;20;3577375;-46
2023/07/22 04:16:17;;;;;;;;;21.67;21.67;;;;;17.52;100.00;99335.63;6280869;20;3571249;-46
2023/07/22 04:18:46;;;;;;;;;23.33;20.67;;;;;17.71;100.00;99323.84;6282173;20;3585799;-48
2023/07/22 04:21:15;;;;;;;;;24.67;24.33;;;;;17.66;100.00;99328.84;6282138;20;2848848;-48
2023/07/22 04:23:43;;;;;;;;;22.00;21.67;;;;;17.71;100.00;99324.69;6316688;20;3578521;-53
2023/07/22 04:26:11;;;;;;;;;23.00;20.67;;;;;17.72;100.00;99326.41;6281223;20;3557547;-51
2023/07/22 04:28:39;;;;;;;;;20.67;20.67;;;;;17.90;100.00;99322.91;6278165;20;3578845;-49
2023/07/22 04:31:09;;;;;;;;;18.33;17.33;;;;;17.89;100.00;99313.06;6284882;20;3564953;-49
2023/07/22 04:33:37;;;;;;;;;22.67;21.00;;;;;17.87;100.00;99313.22;6313978;20;3589878;-47
2023/07/22 04:36:06;;;;;;;;;22.67;22.67;;;;;18.03;100.00;99315.28;6283780;20;3585730;-48
2023/07/22 04:38:35;;;;;;;;;22.00;21.00;;;;;18.24;100.00;99319.59;6282026;20;3587853;-45
2023/07/22 04:41:04;;;;;;;;;23.00;22.00;;;;;18.64;100.00;99317.31;6281142;20;3584703;-46
2023/07/22 04:43:33;;;;;;;;;22.33;22.33;;;;;18.68;100.00;99333.31;6313616;20;3583590;-46
2023/07/22 04:46:02;;;;;;;;;21.00;18.33;;;;;18.75;100.00;99327.13;6280166;20;2834780;-47
2023/07/22 04:48:31;;;;;;;;;24.00;21.67;;;;;19.02;100.00;99334.34;6313092;20;3589044;-45
2023/07/22 04:50:59;;;;;;;;;26.33;23.67;;;;;18.75;100.00;99324.41;6284087;20;3594025;-48
2023/07/22 04:53:27;;;;;;;;;24.67;23.00;;;;;18.75;100.00;99329.00;6282216;20;3585743;-45
2023/07/22 04:55:56;;;;;;;;;24.67;24.33;;;;;18.71;100.00;99322.13;6283693;20;3598291;-46
2023/07/22 04:58:24;;;;;;;;;25.67;24.00;;;;;18.78;100.00;99331.41;6281460;20;3593014;-46
2023/07/22 05:00:52;;;;;;;;;19.67;18.00;;;;;18.78;100.00;99328.69;6280672;20;3571216;-44
2023/07/22 05:03:20;;;;;;;;;27.00;27.00;;;;;18.95;100.00;99335.13;6281816;20;3595174;-47
2023/07/22 05:05:49;;;;;;;;;23.00;19.67;;;;;19.03;100.00;99338.75;6286409;20;3569044;-46
2023/07/22 05:08:17;;;;;;;;;24.33;20.33;;;;;19.08;100.00;99330.97;6280982;20;3578481;-44
2023/07/22 05:10:46;;;;;;;;;24.00;24.00;;;;;19.17;100.00;99329.19;6284263;20;3588942;-46
2023/07/22 05:13:14;;;;;;;;;23.67;20.67;;;;;19.21;100.00;99335.16;6280800;20;3579453;-44
2023/07/22 05:15:43;;;;;;;;;26.00;25.67;;;;;19.23;100.00;99334.00;6281847;20;3600446;-46
2023/07/22 05:18:11;;;;;;;;;24.67;23.33;;;;;19.32;100.00;99337.63;6280872;20;3591947;-45
2023/07/22 05:20:39;;;;;;;;;26.00;26.00;;;;;20.04;100.00;99337.41;6281066;20;3601335;-44
2023/07/22 05:23:07;;;;;;;;;24.00;24.00;;;;;19.72;100.00;99339.81;6280395;20;3585779;-44
2023/07/22 05:25:36;;;;;;;;;24.67;24.67;;;;;19.69;100.00;99339.25;6283982;20;3600270;-45
2023/07/22 05:28:04;;;;;;;;;24.33;24.00;;;;;19.92;100.00;99345.00;6280906;20;3590852;-48
2023/07/22 05:30:32;;;;;;;;;29.00;27.00;;;;;19.97;100.00;99341.81;6282887;20;3542074;-44
2023/07/22 05:33:03;;;;;;;;;27.00;24.67;;;;;20.01;100.00;99348.63;6279877;20;3600372;-45
2023/07/22 05:35:31;;;;;;;;;26.67;25.00;;;;;20.16;100.00;99355.16;6283836;20;3597176;-47
2023/07/22 05:38:02;;;;;;;;;26.00;26.00;;;;;20.41;100.00;99358.84;6278951;20;3590030;-47
2023/07/22 05:40:32;;;;;;;;;26.50;25.00;;;;;20.29;100.00;99369.19;6284140;20;3604481;-44
2023/07/22 05:43:00;;;;;;;;;29.67;27.00;;;;;20.36;100.00;99364.78;6315470;20;3596217;-44
2023/07/22 05:45:29;;;;;;;;;31.33;27.67;;;;;20.29;100.00;99366.47;6284573;20;3577447;-44
2023/07/22 05:47:57;;;;;;;;;27.00;26.33;;;;;20.29;100.00;99371.91;6283698;20;3597186;-43
2023/07/22 05:50:25;;;;;;;;;28.33;27.33;;;;;20.21;100.00;99374.59;6284155;20;3598212;-44
2023/07/22 05:52:53;;;;;;;;;35.00;31.67;;;;;20.30;100.00;99375.47;6279404;20;3598196;-44
2023/07/22 05:55:21;;;;;;;;;33.00;31.00;;;;;20.61;100.00;99382.09;6283431;20;3601378;-44
2023/07/22 05:57:50;;;;;;;;;31.00;29.00;;;;;20.64;100.00;99378.19;6282963;20;3580498;-46
2023/07/22 06:00:18;;;;;;;;;29.67;28.00;;;;;20.52;100.00;99374.03;6284060;20;3588943;-45
2023/07/22 06:02:48;;;;;;;;;31.33;29.00;;;;;20.69;100.00;99375.81;6283226;20;3581690;-49
2023/07/22 06:05:17;;;;;;;;;31.33;26.33;;;;;21.21;100.00;99378.25;6280073;20;3591996;-46
2023/07/22 06:07:45;;;;;;;;;29.67;27.67;;;;;21.22;100.00;99380.00;6287500;20;3587765;-47
2023/07/22 06:10:13;;;;;;;;;22.33;20.67;;;;;21.34;100.00;99382.38;6289588;20;3574245;-44
2023/07/22 06:12:42;;;;;;;;;17.33;17.33;;;;;21.11;100.00;99380.31;6282371;20;2840009;-44
2023/07/22 06:15:10;;;;;;;;;17.00;17.00;;;;;20.86;100.00;99376.72;6319643;20;3560710;-44
2023/07/22 06:17:39;;;;;;;;;19.00;18.00;;;;;21.08;100.00;99380.66;6287216;20;3571180;-45
2023/07/22 06:20:08;;;;;;;;;18.00;16.00;;;;;21.43;100.00;99376.78;6284567;20;2839868;-45
2023/07/22 06:22:36;;;;;;;;;18.00;17.33;;;;;21.61;99.07;99387.50;6288117;20;3577484;-46
2023/07/22 06:25:06;;;;;;;;;19.33;16.67;;;;;21.69;96.30;99387.47;6285224;20;3565896;-44
2023/07/22 06:27:35;;;;;;;;;14.67;14.67;;;;;21.72;96.06;99393.63;6283917;20;2483587;-46
2023/07/22 06:30:04;;;;;;;;;15.00;15.00;;;;;21.91;95.49;99396.00;6316988;20;3544035;-45
2023/07/22 06:32:32;;;;;;;;;22.50;17.50;;;;;22.19;95.19;99395.59;6313937;20;2829489;-44
2023/07/22 06:35:01;;;;;;;;;15.50;15.50;;;;;22.34;92.82;99394.66;6284689;20;2822246;-44
2023/07/22 06:37:29;;;;;;;;;17.67;17.67;;;;;22.47;92.94;99405.06;6287968;20;3563921;-44
2023/07/22 06:39:58;;;;;;;;;16.67;15.67;;;;;22.54;91.11;99411.53;6288300;20;3568991;-52
2023/07/22 06:42:27;;;;;;;;;17.50;17.50;;;;;22.75;92.38;99412.78;6285315;20;2828410;-47
2023/07/22 06:44:55;;;;;;;;;20.67;19.00;;;;;23.05;90.83;99408.34;6288742;20;3563902;-47
2023/07/22 06:47:23;;;;;;;;;16.67;16.67;;;;;23.42;89.53;99418.50;6285077;20;3561757;-45
2023/07/22 06:49:52;;;;;;;;;17.33;16.67;;;;;23.16;91.09;99421.59;6316951;20;3551542;-46
2023/07/22 06:52:20;;;;;;;;;15.67;14.33;;;;;23.38;87.14;99419.91;6286175;20;3552394;-46
2023/07/22 06:54:48;;;;;;;;;16.00;16.00;;;;;23.68;85.90;99425.47;6317179;20;3562779;-45
2023/07/22 06:57:16;;;;;;;;;19.00;18.00;;;;;23.80;84.63;99424.03;6283705;20;3560675;-50
2023/07/22 06:59:45;;;;;;;;;15.67;14.67;;;;;24.01;84.90;99425.16;6287813;20;3546286;-49
2023/07/22 07:02:13;;;;;;;;;17.33;14.67;;;;;23.67;86.24;99423.75;6318633;20;3554432;-48
2023/07/22 07:04:41;;;;;;;;;15.00;15.00;;;;;24.21;83.80;99429.06;6283407;20;2808660;-53
2023/07/22 07:07:09;;;;;;;;;19.00;17.33;;;;;24.53;82.13;99437.97;6278429;20;3559662;-50
2023/07/22 07:09:37;;;;;;;;;17.00;17.00;;;;;24.39;81.75;99425.09;6285899;20;2830553;-50
2023/07/22 07:12:06;;;;;;;;;20.00;17.33;;;;;24.43;82.28;99434.66;6285959;20;3565895;-49
2023/07/22 07:14:35;;;;;;;;;18.00;17.00;;;;;25.12;80.49;99440.63;6285764;20;3565890;-51
2023/07/22 07:17:03;;;;;;;;;13.00;12.00;;;;;24.91;80.95;99448.81;6294388;20;2598230;-50
2023/07/22 07:19:31;;;;;;;;;17.00;17.00;;;;;25.01;78.54;99451.25;6315862;20;3567389;-46
2023/07/22 07:21:59;;;;;;;;;16.50;16.50;;;;;24.59;79.49;99448.19;6279944;20;2824268;-47
2023/07/22 07:24:28;;;;;;;;;18.33;17.67;;;;;25.34;77.38;99446.16;6283553;20;2837831;-50
2023/07/22 07:26:57;;;;;;;;;18.00;16.67;;;;;25.39;77.33;99449.16;6316139;20;3565893;-45
2023/07/22 07:29:25;;;;;;;;;16.33;16.33;;;;;25.68;78.48;99452.81;6289466;20;3560715;-50
2023/07/22 07:32:13;;;;;;;;;17.00;17.00;;;;;24.71;79.41;99451.31;6284896;20;3569056;-48
2023/07/22 07:34:41;;;;;;;;;17.00;16.00;;;;;25.40;75.27;99453.59;6284046;20;2820135;-44
2023/07/22 07:37:09;;;;;;;;;13.50;13.50;;;;;25.19;75.06;99463.53;6283908;20;2808870;-45
2023/07/22 07:39:37;;;;;;;;;12.67;12.67;;;;;25.45;73.55;99464.88;6282802;20;3526293;-46
2023/07/22 07:42:06;;;;;;;;;15.33;14.33;;;;;25.52;71.99;99451.19;6315916;20;3550278;-44
2023/07/22 07:44:34;;;;;;;;;16.00;14.33;;;;;25.70;70.85;99458.94;6317646;20;3552329;-45
2023/07/22 07:47:02;;;;;;;;;14.00;14.00;;;;;26.36;70.82;99454.00;6281292;20;2808775;-47
2023/07/22 07:49:30;;;;;;;;;14.00;13.00;;;;;26.51;68.89;99464.88;6285265;20;2525288;-46
2023/07/22 07:51:58;;;;;;;;;15.33;15.33;;;;;26.62;69.11;99463.47;6317772;20;3550260;-44
2023/07/22 07:54:26;;;;;;;;;15.00;14.00;;;;;26.58;68.06;99470.47;6307168;20;2811856;-46
2023/07/22 07:56:57;;;;;;;;;12.67;12.67;;;;;26.47;70.61;99469.94;6286388;20;3519408;-45
2023/07/22 07:59:25;;;;;;;;;16.00;14.50;;;;;26.50;68.27;99469.53;6312825;20;2823186;-45
2023/07/22 08:01:53;;;;;;;;;14.50;14.50;;;;;26.83;68.31;99474.41;6282711;20;2806639;-45
2023/07/22 08:04:23;;;;;;;;;15.33;14.33;;;;;26.81;68.24;99473.75;6285562;20;3547189;-45
2023/07/22 08:06:51;;;;;;;;;13.33;13.33;;;;;27.00;66.53;99485.91;6316365;20;2483646;-45
2023/07/22 08:09:19;;;;;;;;;13.67;13.67;;;;;26.91;65.26;99501.78;6321298;20;3544153;-46
2023/07/22 08:11:48;;;;;;;;;11.33;11.33;;;;;27.21;63.30;99495.97;6314174;20;3525263;-46
2023/07/22 08:14:18;;;;;;;;;12.00;12.00;;;;;27.18;64.36;99501.06;6311035;20;2483625;-45
2023/07/22 08:16:46;;;;;;;;;12.67;12.00;;;;;27.40;64.91;99504.50;6312120;20;2483725;-45
2023/07/22 08:19:14;;;;;;;;;11.67;11.00;;;;;26.78;63.39;99509.09;6312682;20;3506532;-45
2023/07/22 08:21:42;;;;;;;;;13.00;11.67;;;;;26.92;64.43;99514.50;6316064;20;3526759;-45
2023/07/22 08:24:10;;;;;;;;;12.50;12.50;;;;;27.45;60.22;99511.09;6312450;20;2788231;-44
2023/07/22 08:26:38;;;;;;;;;11.33;11.33;;;;;27.56;60.30;99520.66;6283935;20;3516009;-43
2023/07/22 08:29:06;;;;;;;;;10.33;10.33;;;;;27.20;63.05;99521.84;6314163;20;3509705;-44
2023/07/22 08:31:35;;;;;;;;;11.33;11.33;;;;;26.39;63.05;99516.91;6314838;20;2483628;-45
2023/07/22 08:34:03;;;;;;;;;13.00;12.00;;;;;26.96;62.88;99516.81;6312904;20;3494062;-46
2023/07/22 08:36:32;;;;;;;;;13.50;12.50;;;;;26.24;63.02;99524.41;6320018;20;2483940;-48
2023/07/22 08:39:40;;;;;;;;;12.00;11.00;;;;;26.54;61.48;99521.47;6316000;20;2483799;-46
2023/07/22 08:42:09;;;;;;;;;13.67;12.33;;;;;26.98;59.95;99528.50;6313117;20;2483765;-45
2023/07/22 08:44:43;;;;;;;;;10.33;10.00;;;;;26.21;62.08;99527.56;6316387;20;2777558;-45
2023/07/22 08:47:16;;;;;;;;;11.00;11.00;;;;;26.61;60.36;99528.72;6314366;20;2728804;-45
2023/07/22 08:49:57;;;;;;;;;7.67;7.67;;;;;26.71;59.58;99531.13;6323418;20;2748197;-45
2023/07/22 08:52:25;;;;;;;;;11.00;11.00;;;;;27.17;58.71;99530.50;6311889;20;2484115;-47
2023/07/22 08:54:55;;;;;;;;;10.33;10.33;;;;;27.33;59.49;99535.69;6307052;20;3513918;-46
2023/07/22 08:57:24;;;;;;;;;12.00;12.00;;;;;27.18;59.36;99528.63;6277873;20;3524276;-49
2023/07/22 08:59:53;;;;;;;;;12.67;11.67;;;;;27.62;58.88;99539.16;6278300;20;2483658;-42
2023/07/22 09:02:22;;;;;;;;;10.00;9.33;;;;;26.90;54.99;99541.38;6315912;20;2776515;-46
2023/07/22 09:04:50;;;;;;;;;12.00;10.33;;;;;27.14;56.48;99540.00;6308520;20;3506506;-46
2023/07/22 09:07:18;;;;;;;;;8.00;8.00;;;;;27.60;56.24;99533.00;6311062;20;3460729;-43
2023/07/22 09:09:46;;;;;;;;;7.33;6.33;;;;;27.43;54.38;99537.19;6321600;20;2737822;-44
2023/07/22 09:12:15;;;;;;;;;7.67;6.33;;;;;27.59;51.94;99539.56;6310891;20;2745144;-45
2023/07/22 09:14:44;;;;;;;;;8.00;8.00;;;;;27.04;52.91;99544.22;6306410;20;2748277;-43
2023/07/22 09:17:12;;;;;;;;;8.00;8.00;;;;;27.02;51.29;99540.84;6315799;20;2747287;-43
2023/07/22 09:19:41;;;;;;;;;9.67;8.67;;;;;27.23;52.08;99540.75;6320818;20;2767979;-45
2023/07/22 09:22:09;;;;;;;;;6.67;6.67;;;;;26.78;52.45;99540.28;6312118;20;2744462;-46
2023/07/22 09:24:37;;;;;;;;;7.00;7.00;;;;;27.45;52.63;99543.34;6311382;20;2746136;-47
2023/07/22 09:27:05;;;;;;;;;8.67;8.67;;;;;27.90;51.93;99550.06;6306740;20;3476340;-43
2023/07/22 09:29:36;;;;;;;;;9.00;9.00;;;;;28.22;51.46;99564.94;6309170;20;3469088;-42
2023/07/22 09:32:04;;;;;;;;;8.67;7.33;;;;;27.44;52.29;99549.94;6317399;20;2746156;-43
2023/07/22 09:34:32;;;;;;;;;8.33;8.33;;;;;27.63;52.40;99553.81;6296573;20;2755150;-48
2023/07/22 09:37:00;;;;;;;;;8.67;8.67;;;;;28.15;51.67;99549.44;6299080;20;2752446;-51
2023/07/22 09:39:29;;;;;;;;;10.33;10.33;;;;;28.24;51.82;99546.25;6302522;20;2791967;-49
2023/07/22 09:41:58;;;;;;;;;12.33;12.33;;;;;28.70;50.97;99555.59;6309785;20;3531631;-44
2023/07/22 09:44:32;;;;;;;;;9.00;9.00;;;;;27.95;50.50;99546.66;6309454;20;3473809;-46
2023/07/22 09:47:08;;;;;;;;;9.33;9.33;;;;;28.81;49.84;99556.84;6310727;20;3481502;-47
2023/07/22 09:49:42;;;;;;;;;6.33;6.33;;;;;27.89;52.64;99548.34;6314918;20;2748223;-48
2023/07/22 09:52:13;;;;;;;;;8.67;8.67;;;;;27.95;52.22;99541.16;6311512;20;2747226;-44
2023/07/22 09:54:49;;;;;;;;;10.33;9.00;;;;;27.71;51.30;99543.41;6316620;20;2771173;-45
2023/07/22 09:57:18;;;;;;;;;13.67;13.67;;;;;27.59;53.77;99542.31;6310803;20;2485735;-45
2023/07/22 09:59:50;;;;;;;;;9.00;8.33;;;;;27.94;52.53;99533.94;6307449;20;3458723;-44
2023/07/22 10:02:21;;;;;;;;;13.00;12.67;;;;;28.52;50.41;99538.84;6310665;20;2483615;-47
2023/07/22 10:04:52;;;;;;;;;9.33;8.00;;;;;28.55;48.77;99536.47;6312878;20;2763938;-45
2023/07/22 10:07:21;;;;;;;;;10.67;10.67;;;;;29.17;50.01;99547.16;6310222;20;3502449;-43
2023/07/22 10:09:52;;;;;;;;;10.00;9.00;;;;;28.15;49.36;99536.50;6279166;20;3487821;-45
2023/07/22 10:12:20;;;;;;;;;6.00;6.00;;;;;28.57;48.03;99537.13;6312333;20;2753393;-45
2023/07/22 10:14:49;;;;;;;;;6.33;4.33;;;;;28.65;48.75;99536.88;6314568;20;2738973;-42
2023/07/22 10:17:17;;;;;;;;;9.33;8.33;;;;;28.32;46.96;99544.34;6319092;20;2753503;-44
2023/07/22 10:19:46;;;;;;;;;9.00;9.00;;;;;28.25;46.60;99547.09;6310590;20;2747157;-45
2023/07/22 10:22:14;;;;;;;;;6.00;6.00;;;;;28.36;45.70;99553.91;6315548;20;2732645;-43
2023/07/22 10:24:45;;;;;;;;;7.33;7.33;;;;;28.43;44.87;99554.72;6312505;20;2752422;-47
2023/07/22 10:27:16;;;;;;;;;7.00;7.00;;;;;28.75;43.19;99560.44;6310495;20;2752561;-45
2023/07/22 10:29:46;;;;;;;;;6.00;6.00;;;;;28.89;42.40;99559.38;6314362;20;2744062;-47
2023/07/22 10:32:14;;;;;;;;;10.00;8.67;;;;;28.75;43.21;99557.69;6311480;20;2773217;-44
2023/07/22 10:34:42;;;;;;;;;5.00;5.00;;;;;28.18;44.50;99554.53;6315279;20;2743090;-45
2023/07/22 10:37:10;;;;;;;;;6.00;6.00;;;;;27.92;43.30;99564.50;6314118;20;2737911;-45
2023/07/22 10:39:39;;;;;;;;;7.33;7.00;;;;;28.25;44.15;99558.13;6312482;20;2742974;-44
2023/07/22 10:42:07;;;;;;;;;7.33;7.33;;;;;28.62;43.75;99566.84;6321503;20;2750278;-45
2023/07/22 10:44:39;;;;;;;;;8.67;8.67;;;;;28.33;45.14;99559.81;6311905;20;2752463;-46
2023/07/22 10:47:07;;;;;;;;;10.00;8.33;;;;;28.66;45.44;99555.16;6317377;20;2775679;-44
2023/07/22 10:49:48;;;;;;;;;8.33;8.33;;;;;28.47;46.18;99555.19;6310224;20;2758646;-44
2023/07/22 10:52:42;;;;;;;;;9.67;9.67;;;;;27.46;49.92;99547.78;6312092;20;3495064;-44
2023/07/22 10:55:17;;;;;;;;;10.33;10.33;;;;;27.26;49.72;99548.59;6311151;20;3510712;-46
2023/07/22 10:57:52;;;;;;;;;11.00;11.00;;;;;28.52;48.49;99541.59;6276753;20;3514869;-44
2023/07/22 11:00:21;;;;;;;;;10.67;9.00;;;;;28.74;47.72;99550.47;6283916;20;2767988;-46
2023/07/22 11:03:10;;;;;;;;;10.00;8.67;;;;;29.14;44.65;99542.06;6307540;20;3483632;-47
2023/07/22 11:05:55;;;;;;;;;8.33;8.33;;;;;29.36;44.92;99554.53;6315186;20;2752380;-43
2023/07/22 11:08:38;;;;;;;;;8.67;8.67;;;;;28.55;45.85;99547.53;6308920;20;2748304;-48